Southeast Texas Regional Airport Beaumont,Port Arthur US
ICAO: KBPT
IATA: BPT
Category: Medium
Scheduled Services: Yes

Elevation: 15 ft
TransAlt. 18000 ft.

Airport Communications:
BEAUMONT APP/DEP:121.3
ATIS:126.3
CLNC DEL:118.3
CTAF:119.5
GND:121.9
MONTGOMERY CO RDO:122.2
BEAUMONT TWR:119.5
UNICOM:122.95

KBPT Zoom In..

Runways:

(A) RW 12 length 6750 ft width 150 ft
ILS 110.15 / hdg 116

(B) RW 16 length 5070 ft width 150 ft
---- / hdg 161

(C) RW 30 length 6750 ft width 150 ft
---- / hdg 296

(D) RW 34 length 5070 ft width 150 ft
---- / hdg 341

Location; KBPT
Day. 23 / Time. 06.53 Zulu
* Altimeter: 29.83
* Temperature: 28° c. 82.4°f.
* Wind from: 230° Speed 10 kn.
Dewpoint: 23° c.
Visibility: 10 Statute Miles.
Clouds: Clear (automated report).

KBPT 230653Z AUTO 23010KT 10SM CLR 28/23 A2983 RMK AO2 SLP099 T02780233 $


Wind From 230°
Speed 10 kn.

 
 
jpsmedia.com for Web Design worldairports.se 2018   terms of use